sensor_id;sensor_type;location;lat;lon;timestamp;P1;durP1;ratioP1;P2;durP2;ratioP2
63346;SDS011;49472;49.880;8.650;2023-08-20T00:01:04;20.25;;;18.63;;
63346;SDS011;49472;49.880;8.650;2023-08-20T00:03:30;19.88;;;17.95;;
63346;SDS011;49472;49.880;8.650;2023-08-20T00:05:56;19.95;;;18.25;;
63346;SDS011;49472;49.880;8.650;2023-08-20T00:08:21;20.20;;;18.15;;
63346;SDS011;49472;49.880;8.650;2023-08-20T00:10:47;20.45;;;18.38;;
63346;SDS011;49472;49.880;8.650;2023-08-20T00:13:12;19.73;;;18.13;;
63346;SDS011;49472;49.880;8.650;2023-08-20T00:15:38;20.73;;;18.95;;
63346;SDS011;49472;49.880;8.650;2023-08-20T00:18:03;24.83;;;18.13;;
63346;SDS011;49472;49.880;8.650;2023-08-20T00:20:29;20.35;;;18.52;;
63346;SDS011;49472;49.880;8.650;2023-08-20T00:22:55;21.58;;;18.63;;
63346;SDS011;49472;49.880;8.650;2023-08-20T00:25:20;20.88;;;19.08;;
63346;SDS011;49472;49.880;8.650;2023-08-20T00:27:46;19.40;;;17.80;;
63346;SDS011;49472;49.880;8.650;2023-08-20T00:30:11;19.63;;;18.02;;
63346;SDS011;49472;49.880;8.650;2023-08-20T00:32:37;19.23;;;17.42;;
63346;SDS011;49472;49.880;8.650;2023-08-20T00:35:03;20.58;;;18.60;;
63346;SDS011;49472;49.880;8.650;2023-08-20T00:37:29;20.23;;;18.42;;
63346;SDS011;49472;49.880;8.650;2023-08-20T00:39:55;22.38;;;18.95;;
63346;SDS011;49472;49.880;8.650;2023-08-20T00:42:22;20.35;;;18.58;;
63346;SDS011;49472;49.880;8.650;2023-08-20T00:44:50;18.10;;;16.80;;
63346;SDS011;49472;49.880;8.650;2023-08-20T00:47:15;24.13;;;21.58;;
63346;SDS011;49472;49.880;8.650;2023-08-20T00:49:41;20.60;;;18.75;;
63346;SDS011;49472;49.880;8.650;2023-08-20T00:52:10;20.05;;;18.35;;
63346;SDS011;49472;49.880;8.650;2023-08-20T00:54:37;20.80;;;18.80;;
63346;SDS011;49472;49.880;8.650;2023-08-20T00:57:04;20.70;;;18.80;;
63346;SDS011;49472;49.880;8.650;2023-08-20T00:59:31;21.13;;;18.92;;
63346;SDS011;49472;49.880;8.650;2023-08-20T01:01:57;22.30;;;18.00;;
63346;SDS011;49472;49.880;8.650;2023-08-20T01:04:23;21.75;;;19.80;;
63346;SDS011;49472;49.880;8.650;2023-08-20T01:12:25;20.73;;;19.23;;
63346;SDS011;49472;49.880;8.650;2023-08-20T01:14:51;21.05;;;19.02;;
63346;SDS011;49472;49.880;8.650;2023-08-20T01:17:16;28.38;;;18.63;;
63346;SDS011;49472;49.880;8.650;2023-08-20T01:19:41;21.17;;;18.95;;
63346;SDS011;49472;49.880;8.650;2023-08-20T01:22:13;19.35;;;17.75;;
63346;SDS011;49472;49.880;8.650;2023-08-20T01:30:33;19.38;;;17.80;;
63346;SDS011;49472;49.880;8.650;2023-08-20T01:33:01;20.20;;;18.38;;
63346;SDS011;49472;49.880;8.650;2023-08-20T01:35:27;19.30;;;17.80;;
63346;SDS011;49472;49.880;8.650;2023-08-20T01:37:53;20.90;;;18.88;;
63346;SDS011;49472;49.880;8.650;2023-08-20T01:40:18;19.05;;;17.55;;
63346;SDS011;49472;49.880;8.650;2023-08-20T01:42:44;22.20;;;18.20;;
63346;SDS011;49472;49.880;8.650;2023-08-20T01:45:09;20.70;;;18.25;;
63346;SDS011;49472;49.880;8.650;2023-08-20T01:47:35;19.63;;;17.88;;
63346;SDS011;49472;49.880;8.650;2023-08-20T01:50:01;20.95;;;18.90;;
63346;SDS011;49472;49.880;8.650;2023-08-20T01:52:27;21.30;;;19.48;;
63346;SDS011;49472;49.880;8.650;2023-08-20T01:54:54;20.48;;;18.55;;
63346;SDS011;49472;49.880;8.650;2023-08-20T01:57:19;20.55;;;18.35;;
63346;SDS011;49472;49.880;8.650;2023-08-20T01:59:45;19.83;;;18.15;;
63346;SDS011;49472;49.880;8.650;2023-08-20T02:02:10;21.13;;;19.08;;
63346;SDS011;49472;49.880;8.650;2023-08-20T02:04:35;20.25;;;18.65;;
63346;SDS011;49472;49.880;8.650;2023-08-20T02:07:00;20.42;;;17.77;;
63346;SDS011;49472;49.880;8.650;2023-08-20T02:09:26;19.63;;;18.13;;
63346;SDS011;49472;49.880;8.650;2023-08-20T02:11:51;20.52;;;18.40;;
63346;SDS011;49472;49.880;8.650;2023-08-20T02:14:17;20.63;;;18.70;;
63346;SDS011;49472;49.880;8.650;2023-08-20T02:16:42;19.83;;;18.10;;
63346;SDS011;49472;49.880;8.650;2023-08-20T02:19:08;26.05;;;18.35;;
63346;SDS011;49472;49.880;8.650;2023-08-20T02:21:34;20.05;;;18.33;;
63346;SDS011;49472;49.880;8.650;2023-08-20T02:24:00;19.13;;;17.58;;
63346;SDS011;49472;49.880;8.650;2023-08-20T02:26:25;19.05;;;17.55;;
63346;SDS011;49472;49.880;8.650;2023-08-20T02:28:51;20.77;;;18.67;;
63346;SDS011;49472;49.880;8.650;2023-08-20T02:31:16;21.10;;;19.17;;
63346;SDS011;49472;49.880;8.650;2023-08-20T02:33:41;22.88;;;19.20;;
63346;SDS011;49472;49.880;8.650;2023-08-20T02:36:07;19.13;;;17.63;;
63346;SDS011;49472;49.880;8.650;2023-08-20T02:38:32;20.20;;;18.48;;
63346;SDS011;49472;49.880;8.650;2023-08-20T02:41:00;20.20;;;18.08;;
63346;SDS011;49472;49.880;8.650;2023-08-20T02:43:25;20.10;;;18.38;;
63346;SDS011;49472;49.880;8.650;2023-08-20T02:45:51;20.13;;;18.33;;
63346;SDS011;49472;49.880;8.650;2023-08-20T02:48:17;21.17;;;19.15;;
63346;SDS011;49472;49.880;8.650;2023-08-20T02:50:43;21.92;;;20.00;;
63346;SDS011;49472;49.880;8.650;2023-08-20T02:53:08;26.02;;;19.10;;
63346;SDS011;49472;49.880;8.650;2023-08-20T02:55:33;19.85;;;18.25;;
63346;SDS011;49472;49.880;8.650;2023-08-20T02:58:00;21.35;;;19.50;;
63346;SDS011;49472;49.880;8.650;2023-08-20T03:00:26;20.50;;;19.00;;
63346;SDS011;49472;49.880;8.650;2023-08-20T03:02:51;20.63;;;18.92;;
63346;SDS011;49472;49.880;8.650;2023-08-20T03:05:17;24.00;;;18.20;;
63346;SDS011;49472;49.880;8.650;2023-08-20T03:07:42;20.55;;;18.60;;
63346;SDS011;49472;49.880;8.650;2023-08-20T03:10:07;21.98;;;19.88;;
63346;SDS011;49472;49.880;8.650;2023-08-20T03:12:34;20.38;;;18.58;;
63346;SDS011;49472;49.880;8.650;2023-08-20T03:14:59;19.60;;;18.10;;
63346;SDS011;49472;49.880;8.650;2023-08-20T03:17:25;20.48;;;18.60;;
63346;SDS011;49472;49.880;8.650;2023-08-20T03:19:57;20.58;;;18.67;;
63346;SDS011;49472;49.880;8.650;2023-08-20T03:22:24;20.08;;;18.27;;
63346;SDS011;49472;49.880;8.650;2023-08-20T03:24:50;21.23;;;19.20;;
63346;SDS011;49472;49.880;8.650;2023-08-20T03:27:16;27.13;;;19.77;;
63346;SDS011;49472;49.880;8.650;2023-08-20T03:29:42;20.65;;;18.58;;
63346;SDS011;49472;49.880;8.650;2023-08-20T03:32:08;18.92;;;17.42;;
63346;SDS011;49472;49.880;8.650;2023-08-20T03:34:34;24.63;;;19.90;;
63346;SDS011;49472;49.880;8.650;2023-08-20T03:36:59;21.75;;;19.02;;
63346;SDS011;49472;49.880;8.650;2023-08-20T03:39:25;21.40;;;19.27;;
63346;SDS011;49472;49.880;8.650;2023-08-20T03:41:51;20.35;;;18.60;;
63346;SDS011;49472;49.880;8.650;2023-08-20T03:44:17;21.25;;;19.55;;
63346;SDS011;49472;49.880;8.650;2023-08-20T03:46:42;21.00;;;19.15;;
63346;SDS011;49472;49.880;8.650;2023-08-20T03:49:08;22.40;;;19.25;;
63346;SDS011;49472;49.880;8.650;2023-08-20T03:51:33;20.83;;;19.00;;
63346;SDS011;49472;49.880;8.650;2023-08-20T03:53:58;20.92;;;18.85;;
63346;SDS011;49472;49.880;8.650;2023-08-20T03:56:24;20.30;;;18.40;;
63346;SDS011;49472;49.880;8.650;2023-08-20T03:58:49;22.70;;;20.35;;
63346;SDS011;49472;49.880;8.650;2023-08-20T04:01:14;21.55;;;19.45;;
63346;SDS011;49472;49.880;8.650;2023-08-20T04:03:40;21.00;;;19.02;;
63346;SDS011;49472;49.880;8.650;2023-08-20T04:06:05;20.25;;;18.35;;
63346;SDS011;49472;49.880;8.650;2023-08-20T04:08:31;21.00;;;19.20;;
63346;SDS011;49472;49.880;8.650;2023-08-20T04:10:57;21.42;;;19.55;;
63346;SDS011;49472;49.880;8.650;2023-08-20T04:13:22;24.88;;;19.77;;
63346;SDS011;49472;49.880;8.650;2023-08-20T04:15:47;21.80;;;20.10;;
63346;SDS011;49472;49.880;8.650;2023-08-20T04:18:13;21.75;;;19.05;;
63346;SDS011;49472;49.880;8.650;2023-08-20T04:20:38;24.65;;;20.10;;
63346;SDS011;49472;49.880;8.650;2023-08-20T04:23:03;26.25;;;19.88;;
63346;SDS011;49472;49.880;8.650;2023-08-20T04:25:29;20.27;;;18.27;;
63346;SDS011;49472;49.880;8.650;2023-08-20T04:27:54;19.75;;;18.13;;
63346;SDS011;49472;49.880;8.650;2023-08-20T04:30:20;21.65;;;19.73;;
63346;SDS011;49472;49.880;8.650;2023-08-20T04:32:45;21.77;;;19.88;;
63346;SDS011;49472;49.880;8.650;2023-08-20T04:35:10;21.58;;;19.33;;
63346;SDS011;49472;49.880;8.650;2023-08-20T04:37:36;21.10;;;19.00;;
63346;SDS011;49472;49.880;8.650;2023-08-20T04:40:01;21.02;;;19.38;;
63346;SDS011;49472;49.880;8.650;2023-08-20T04:42:29;22.25;;;19.85;;
63346;SDS011;49472;49.880;8.650;2023-08-20T04:44:55;22.73;;;20.45;;
63346;SDS011;49472;49.880;8.650;2023-08-20T04:47:20;21.35;;;19.23;;
63346;SDS011;49472;49.880;8.650;2023-08-20T04:49:45;22.33;;;20.05;;
63346;SDS011;49472;49.880;8.650;2023-08-20T04:52:10;25.23;;;20.52;;
63346;SDS011;49472;49.880;8.650;2023-08-20T04:54:36;22.20;;;20.15;;
63346;SDS011;49472;49.880;8.650;2023-08-20T04:57:01;21.83;;;19.65;;
63346;SDS011;49472;49.880;8.650;2023-08-20T04:59:27;21.58;;;19.67;;
63346;SDS011;49472;49.880;8.650;2023-08-20T05:01:52;20.40;;;18.40;;
63346;SDS011;49472;49.880;8.650;2023-08-20T05:04:18;22.52;;;19.27;;
63346;SDS011;49472;49.880;8.650;2023-08-20T05:06:43;21.60;;;19.65;;
63346;SDS011;49472;49.880;8.650;2023-08-20T05:09:08;21.85;;;19.80;;
63346;SDS011;49472;49.880;8.650;2023-08-20T05:11:34;19.90;;;18.20;;
63346;SDS011;49472;49.880;8.650;2023-08-20T05:13:59;22.05;;;19.92;;
63346;SDS011;49472;49.880;8.650;2023-08-20T05:16:25;21.10;;;18.95;;
63346;SDS011;49472;49.880;8.650;2023-08-20T05:18:50;30.50;;;19.08;;
63346;SDS011;49472;49.880;8.650;2023-08-20T05:21:15;21.02;;;19.35;;
63346;SDS011;49472;49.880;8.650;2023-08-20T05:23:41;23.00;;;20.60;;
63346;SDS011;49472;49.880;8.650;2023-08-20T05:26:06;21.83;;;19.83;;
63346;SDS011;49472;49.880;8.650;2023-08-20T05:28:32;30.98;;;19.75;;
63346;SDS011;49472;49.880;8.650;2023-08-20T05:30:58;23.42;;;19.80;;
63346;SDS011;49472;49.880;8.650;2023-08-20T05:33:24;22.52;;;20.40;;
63346;SDS011;49472;49.880;8.650;2023-08-20T05:35:49;23.60;;;21.10;;
63346;SDS011;49472;49.880;8.650;2023-08-20T05:38:15;21.73;;;19.92;;
63346;SDS011;49472;49.880;8.650;2023-08-20T05:40:40;25.00;;;20.13;;
63346;SDS011;49472;49.880;8.650;2023-08-20T05:43:06;22.67;;;20.35;;
63346;SDS011;49472;49.880;8.650;2023-08-20T05:45:32;26.23;;;20.63;;
63346;SDS011;49472;49.880;8.650;2023-08-20T05:47:57;20.15;;;18.42;;
63346;SDS011;49472;49.880;8.650;2023-08-20T05:50:22;27.15;;;19.45;;
63346;SDS011;49472;49.880;8.650;2023-08-20T05:52:48;22.58;;;20.27;;
63346;SDS011;49472;49.880;8.650;2023-08-20T05:55:13;21.98;;;20.02;;
63346;SDS011;49472;49.880;8.650;2023-08-20T05:57:39;20.17;;;18.42;;
63346;SDS011;49472;49.880;8.650;2023-08-20T06:00:05;24.35;;;19.60;;
63346;SDS011;49472;49.880;8.650;2023-08-20T06:02:31;21.23;;;19.15;;
63346;SDS011;49472;49.880;8.650;2023-08-20T06:04:57;21.10;;;19.08;;
63346;SDS011;49472;49.880;8.650;2023-08-20T06:07:22;21.10;;;18.90;;
63346;SDS011;49472;49.880;8.650;2023-08-20T06:09:47;19.98;;;18.10;;
63346;SDS011;49472;49.880;8.650;2023-08-20T06:12:14;21.40;;;19.25;;
63346;SDS011;49472;49.880;8.650;2023-08-20T06:14:39;20.67;;;19.02;;
63346;SDS011;49472;49.880;8.650;2023-08-20T06:17:04;27.75;;;18.58;;
63346;SDS011;49472;49.880;8.650;2023-08-20T06:19:29;22.70;;;19.58;;
63346;SDS011;49472;49.880;8.650;2023-08-20T06:21:55;21.42;;;19.13;;
63346;SDS011;49472;49.880;8.650;2023-08-20T06:24:20;20.95;;;18.60;;
63346;SDS011;49472;49.880;8.650;2023-08-20T06:26:45;22.00;;;19.77;;
63346;SDS011;49472;49.880;8.650;2023-08-20T06:29:11;21.23;;;19.20;;
63346;SDS011;49472;49.880;8.650;2023-08-20T06:31:36;21.02;;;18.88;;
63346;SDS011;49472;49.880;8.650;2023-08-20T06:34:01;22.60;;;19.23;;
63346;SDS011;49472;49.880;8.650;2023-08-20T06:36:27;22.42;;;20.10;;
63346;SDS011;49472;49.880;8.650;2023-08-20T06:38:52;20.83;;;18.83;;
63346;SDS011;49472;49.880;8.650;2023-08-20T06:41:18;21.75;;;19.33;;
63346;SDS011;49472;49.880;8.650;2023-08-20T06:43:43;20.40;;;18.33;;
63346;SDS011;49472;49.880;8.650;2023-08-20T06:46:08;20.60;;;18.75;;
63346;SDS011;49472;49.880;8.650;2023-08-20T06:48:34;21.70;;;19.52;;
63346;SDS011;49472;49.880;8.650;2023-08-20T06:51:07;21.15;;;19.38;;
63346;SDS011;49472;49.880;8.650;2023-08-20T06:53:35;21.55;;;19.75;;
63346;SDS011;49472;49.880;8.650;2023-08-20T06:56:00;24.30;;;19.13;;
63346;SDS011;49472;49.880;8.650;2023-08-20T06:58:26;21.38;;;19.17;;
63346;SDS011;49472;49.880;8.650;2023-08-20T07:00:51;25.10;;;19.73;;
63346;SDS011;49472;49.880;8.650;2023-08-20T07:03:17;22.52;;;20.25;;
63346;SDS011;49472;49.880;8.650;2023-08-20T07:05:43;22.00;;;19.90;;
63346;SDS011;49472;49.880;8.650;2023-08-20T07:08:08;28.58;;;19.45;;
63346;SDS011;49472;49.880;8.650;2023-08-20T07:10:33;19.80;;;17.83;;
63346;SDS011;49472;49.880;8.650;2023-08-20T07:12:58;21.35;;;19.10;;
63346;SDS011;49472;49.880;8.650;2023-08-20T07:15:24;21.30;;;19.30;;
63346;SDS011;49472;49.880;8.650;2023-08-20T07:17:50;20.33;;;18.27;;
63346;SDS011;49472;49.880;8.650;2023-08-20T07:20:16;19.92;;;18.15;;
63346;SDS011;49472;49.880;8.650;2023-08-20T07:22:42;25.48;;;19.90;;
63346;SDS011;49472;49.880;8.650;2023-08-20T07:25:07;25.67;;;17.92;;
63346;SDS011;49472;49.880;8.650;2023-08-20T07:27:33;19.73;;;18.02;;
63346;SDS011;49472;49.880;8.650;2023-08-20T07:30:00;21.55;;;19.42;;
63346;SDS011;49472;49.880;8.650;2023-08-20T07:32:26;20.20;;;18.40;;
63346;SDS011;49472;49.880;8.650;2023-08-20T07:34:51;22.13;;;19.70;;
63346;SDS011;49472;49.880;8.650;2023-08-20T07:37:16;20.33;;;18.55;;
63346;SDS011;49472;49.880;8.650;2023-08-20T07:39:42;21.25;;;19.17;;
63346;SDS011;49472;49.880;8.650;2023-08-20T07:42:07;19.65;;;17.92;;
63346;SDS011;49472;49.880;8.650;2023-08-20T07:44:32;20.77;;;19.08;;
63346;SDS011;49472;49.880;8.650;2023-08-20T07:46:58;20.02;;;18.48;;
63346;SDS011;49472;49.880;8.650;2023-08-20T07:49:23;19.95;;;18.50;;
63346;SDS011;49472;49.880;8.650;2023-08-20T07:51:48;19.58;;;18.05;;
63346;SDS011;49472;49.880;8.650;2023-08-20T07:54:17;20.42;;;18.65;;
63346;SDS011;49472;49.880;8.650;2023-08-20T07:56:42;21.27;;;19.17;;
63346;SDS011;49472;49.880;8.650;2023-08-20T07:59:07;21.33;;;19.38;;
63346;SDS011;49472;49.880;8.650;2023-08-20T08:01:33;20.85;;;18.95;;
63346;SDS011;49472;49.880;8.650;2023-08-20T08:03:58;24.05;;;19.40;;
63346;SDS011;49472;49.880;8.650;2023-08-20T08:06:23;20.98;;;18.17;;
63346;SDS011;49472;49.880;8.650;2023-08-20T08:08:49;19.83;;;17.73;;
63346;SDS011;49472;49.880;8.650;2023-08-20T08:11:14;18.67;;;17.27;;
63346;SDS011;49472;49.880;8.650;2023-08-20T08:13:39;18.55;;;17.25;;
63346;SDS011;49472;49.880;8.650;2023-08-20T08:16:09;20.23;;;18.25;;
63346;SDS011;49472;49.880;8.650;2023-08-20T08:18:34;20.25;;;18.52;;
63346;SDS011;49472;49.880;8.650;2023-08-20T08:21:00;21.58;;;19.60;;
63346;SDS011;49472;49.880;8.650;2023-08-20T08:23:25;20.48;;;18.63;;
63346;SDS011;49472;49.880;8.650;2023-08-20T08:25:51;19.67;;;17.98;;
63346;SDS011;49472;49.880;8.650;2023-08-20T08:28:17;20.77;;;18.58;;
63346;SDS011;49472;49.880;8.650;2023-08-20T08:30:43;19.98;;;18.27;;
63346;SDS011;49472;49.880;8.650;2023-08-20T08:33:09;20.85;;;19.13;;
63346;SDS011;49472;49.880;8.650;2023-08-20T08:35:34;19.52;;;17.95;;
63346;SDS011;49472;49.880;8.650;2023-08-20T08:38:00;21.55;;;18.63;;
63346;SDS011;49472;49.880;8.650;2023-08-20T08:40:27;19.80;;;18.20;;
63346;SDS011;49472;49.880;8.650;2023-08-20T08:42:54;20.65;;;18.75;;
63346;SDS011;49472;49.880;8.650;2023-08-20T08:45:20;20.08;;;18.27;;
63346;SDS011;49472;49.880;8.650;2023-08-20T08:47:46;20.55;;;18.40;;
63346;SDS011;49472;49.880;8.650;2023-08-20T08:50:13;19.08;;;17.67;;
63346;SDS011;49472;49.880;8.650;2023-08-20T08:52:39;19.00;;;17.70;;
63346;SDS011;49472;49.880;8.650;2023-08-20T08:55:06;20.20;;;18.13;;
63346;SDS011;49472;49.880;8.650;2023-08-20T08:57:33;19.60;;;17.98;;
63346;SDS011;49472;49.880;8.650;2023-08-20T09:00:00;29.63;;;19.77;;
63346;SDS011;49472;49.880;8.650;2023-08-20T09:02:25;21.00;;;19.13;;
63346;SDS011;49472;49.880;8.650;2023-08-20T09:04:50;20.33;;;18.45;;
63346;SDS011;49472;49.880;8.650;2023-08-20T09:07:17;19.67;;;17.88;;
63346;SDS011;49472;49.880;8.650;2023-08-20T09:09:43;21.50;;;19.58;;
63346;SDS011;49472;49.880;8.650;2023-08-20T09:12:13;20.63;;;18.92;;
63346;SDS011;49472;49.880;8.650;2023-08-20T09:14:48;20.50;;;18.80;;
63346;SDS011;49472;49.880;8.650;2023-08-20T09:17:16;18.58;;;17.20;;
63346;SDS011;49472;49.880;8.650;2023-08-20T09:19:42;20.25;;;18.27;;
63346;SDS011;49472;49.880;8.650;2023-08-20T09:22:13;19.08;;;17.48;;
63346;SDS011;49472;49.880;8.650;2023-08-20T09:24:40;19.85;;;18.13;;
63346;SDS011;49472;49.880;8.650;2023-08-20T09:27:07;19.13;;;17.60;;
63346;SDS011;49472;49.880;8.650;2023-08-20T09:29:33;18.83;;;17.33;;
63346;SDS011;49472;49.880;8.650;2023-08-20T09:32:09;18.70;;;17.10;;
63346;SDS011;49472;49.880;8.650;2023-08-20T09:34:42;19.40;;;17.58;;
63346;SDS011;49472;49.880;8.650;2023-08-20T09:37:08;19.95;;;18.17;;
63346;SDS011;49472;49.880;8.650;2023-08-20T09:39:35;18.45;;;16.85;;
63346;SDS011;49472;49.880;8.650;2023-08-20T09:42:00;18.00;;;16.67;;
63346;SDS011;49472;49.880;8.650;2023-08-20T09:44:27;16.67;;;15.57;;
63346;SDS011;49472;49.880;8.650;2023-08-20T09:46:57;20.90;;;16.75;;
63346;SDS011;49472;49.880;8.650;2023-08-20T09:49:24;19.38;;;17.83;;
63346;SDS011;49472;49.880;8.650;2023-08-20T09:51:54;16.85;;;15.65;;
63346;SDS011;49472;49.880;8.650;2023-08-20T09:56:54;17.38;;;16.23;;
63346;SDS011;49472;49.880;8.650;2023-08-20T09:59:26;17.77;;;16.55;;
63346;SDS011;49472;49.880;8.650;2023-08-20T10:01:51;16.58;;;15.20;;
63346;SDS011;49472;49.880;8.650;2023-08-20T10:04:18;18.02;;;16.50;;
63346;SDS011;49472;49.880;8.650;2023-08-20T10:06:45;20.95;;;15.68;;
63346;SDS011;49472;49.880;8.650;2023-08-20T10:09:11;16.63;;;15.43;;
63346;SDS011;49472;49.880;8.650;2023-08-20T10:11:38;16.77;;;15.13;;
63346;SDS011;49472;49.880;8.650;2023-08-20T10:14:04;16.77;;;15.43;;
63346;SDS011;49472;49.880;8.650;2023-08-20T10:16:31;16.90;;;15.65;;
63346;SDS011;49472;49.880;8.650;2023-08-20T10:19:01;16.17;;;14.80;;
63346;SDS011;49472;49.880;8.650;2023-08-20T10:21:27;16.65;;;15.30;;
63346;SDS011;49472;49.880;8.650;2023-08-20T10:23:53;15.52;;;14.52;;
63346;SDS011;49472;49.880;8.650;2023-08-20T10:26:19;15.70;;;14.38;;
63346;SDS011;49472;49.880;8.650;2023-08-20T10:28:46;15.85;;;14.75;;
63346;SDS011;49472;49.880;8.650;2023-08-20T10:31:12;17.38;;;15.82;;
63346;SDS011;49472;49.880;8.650;2023-08-20T10:33:39;16.50;;;15.10;;
63346;SDS011;49472;49.880;8.650;2023-08-20T10:36:15;15.90;;;14.55;;
63346;SDS011;49472;49.880;8.650;2023-08-20T10:38:42;15.82;;;14.63;;
63346;SDS011;49472;49.880;8.650;2023-08-20T10:41:09;16.42;;;15.27;;
63346;SDS011;49472;49.880;8.650;2023-08-20T10:43:38;15.18;;;14.18;;
63346;SDS011;49472;49.880;8.650;2023-08-20T10:46:18;15.52;;;14.20;;
63346;SDS011;49472;49.880;8.650;2023-08-20T10:48:50;14.65;;;13.73;;
63346;SDS011;49472;49.880;8.650;2023-08-20T10:59:09;15.10;;;14.05;;
63346;SDS011;49472;49.880;8.650;2023-08-20T11:01:45;15.40;;;14.20;;
63346;SDS011;49472;49.880;8.650;2023-08-20T11:04:15;15.25;;;14.05;;
63346;SDS011;49472;49.880;8.650;2023-08-20T11:06:42;14.80;;;13.80;;
63346;SDS011;49472;49.880;8.650;2023-08-20T11:09:09;14.48;;;13.27;;
63346;SDS011;49472;49.880;8.650;2023-08-20T11:11:35;14.55;;;13.13;;
63346;SDS011;49472;49.880;8.650;2023-08-20T11:14:07;13.10;;;12.25;;
63346;SDS011;49472;49.880;8.650;2023-08-20T11:16:36;13.77;;;12.77;;
63346;SDS011;49472;49.880;8.650;2023-08-20T11:19:03;12.90;;;11.90;;
63346;SDS011;49472;49.880;8.650;2023-08-20T11:21:33;12.20;;;11.40;;
63346;SDS011;49472;49.880;8.650;2023-08-20T11:24:09;12.32;;;11.32;;
63346;SDS011;49472;49.880;8.650;2023-08-20T11:26:35;13.13;;;12.32;;
63346;SDS011;49472;49.880;8.650;2023-08-20T11:29:05;13.80;;;12.20;;
63346;SDS011;49472;49.880;8.650;2023-08-20T11:31:34;12.65;;;11.85;;
63346;SDS011;49472;49.880;8.650;2023-08-20T11:34:01;12.07;;;11.38;;
63346;SDS011;49472;49.880;8.650;2023-08-20T11:36:27;12.38;;;11.57;;
63346;SDS011;49472;49.880;8.650;2023-08-20T11:38:53;15.77;;;10.20;;
63346;SDS011;49472;49.880;8.650;2023-08-20T11:41:22;11.57;;;10.80;;
63346;SDS011;49472;49.880;8.650;2023-08-20T11:43:48;12.40;;;11.45;;
63346;SDS011;49472;49.880;8.650;2023-08-20T11:46:15;24.38;;;12.05;;
63346;SDS011;49472;49.880;8.650;2023-08-20T11:51:36;13.13;;;10.65;;
63346;SDS011;49472;49.880;8.650;2023-08-20T11:54:02;10.60;;;10.10;;
63346;SDS011;49472;49.880;8.650;2023-08-20T11:56:29;10.50;;;9.90;;
63346;SDS011;49472;49.880;8.650;2023-08-20T11:58:58;10.65;;;9.95;;
63346;SDS011;49472;49.880;8.650;2023-08-20T12:01:24;10.80;;;9.90;;
63346;SDS011;49472;49.880;8.650;2023-08-20T12:03:50;10.70;;;9.98;;
63346;SDS011;49472;49.880;8.650;2023-08-20T12:06:21;11.15;;;10.43;;
63346;SDS011;49472;49.880;8.650;2023-08-20T12:08:53;11.10;;;10.40;;
63346;SDS011;49472;49.880;8.650;2023-08-20T12:11:19;11.88;;;10.18;;
63346;SDS011;49472;49.880;8.650;2023-08-20T12:13:49;10.93;;;10.13;;
63346;SDS011;49472;49.880;8.650;2023-08-20T12:16:14;11.00;;;10.07;;
63346;SDS011;49472;49.880;8.650;2023-08-20T12:18:39;10.90;;;10.20;;
63346;SDS011;49472;49.880;8.650;2023-08-20T12:21:05;9.63;;;9.13;;
63346;SDS011;49472;49.880;8.650;2023-08-20T12:23:30;9.82;;;9.10;;
63346;SDS011;49472;49.880;8.650;2023-08-20T12:25:56;10.25;;;9.25;;
63346;SDS011;49472;49.880;8.650;2023-08-20T12:28:21;9.05;;;8.40;;
63346;SDS011;49472;49.880;8.650;2023-08-20T12:30:47;10.23;;;9.52;;
63346;SDS011;49472;49.880;8.650;2023-08-20T12:33:13;10.52;;;9.60;;
63346;SDS011;49472;49.880;8.650;2023-08-20T12:35:38;10.07;;;9.45;;
63346;SDS011;49472;49.880;8.650;2023-08-20T12:38:04;9.80;;;9.13;;
63346;SDS011;49472;49.880;8.650;2023-08-20T12:40:30;9.60;;;8.98;;
63346;SDS011;49472;49.880;8.650;2023-08-20T12:42:55;8.63;;;8.23;;
63346;SDS011;49472;49.880;8.650;2023-08-20T12:45:21;8.90;;;8.30;;
63346;SDS011;49472;49.880;8.650;2023-08-20T12:47:46;9.27;;;8.65;;
63346;SDS011;49472;49.880;8.650;2023-08-20T12:50:14;9.05;;;8.40;;
63346;SDS011;49472;49.880;8.650;2023-08-20T12:52:40;7.78;;;7.38;;
63346;SDS011;49472;49.880;8.650;2023-08-20T12:55:08;8.50;;;7.97;;
63346;SDS011;49472;49.880;8.650;2023-08-20T12:57:35;8.50;;;7.97;;
63346;SDS011;49472;49.880;8.650;2023-08-20T13:00:01;8.93;;;8.27;;
63346;SDS011;49472;49.880;8.650;2023-08-20T13:02:35;8.18;;;7.68;;
63346;SDS011;49472;49.880;8.650;2023-08-20T13:05:01;7.95;;;7.57;;
63346;SDS011;49472;49.880;8.650;2023-08-20T13:07:28;7.97;;;7.43;;
63346;SDS011;49472;49.880;8.650;2023-08-20T13:09:53;9.73;;;7.65;;
63346;SDS011;49472;49.880;8.650;2023-08-20T13:12:20;8.80;;;8.18;;
63346;SDS011;49472;49.880;8.650;2023-08-20T13:14:49;7.85;;;7.45;;
63346;SDS011;49472;49.880;8.650;2023-08-20T13:17:14;8.52;;;7.47;;
63346;SDS011;49472;49.880;8.650;2023-08-20T13:19:41;7.60;;;6.95;;
63346;SDS011;49472;49.880;8.650;2023-08-20T13:22:06;7.95;;;7.32;;
63346;SDS011;49472;49.880;8.650;2023-08-20T13:24:34;7.45;;;6.85;;
63346;SDS011;49472;49.880;8.650;2023-08-20T13:26:59;8.23;;;7.53;;
63346;SDS011;49472;49.880;8.650;2023-08-20T13:29:26;7.30;;;6.90;;
63346;SDS011;49472;49.880;8.650;2023-08-20T13:31:52;7.63;;;7.15;;
63346;SDS011;49472;49.880;8.650;2023-08-20T13:34:19;8.50;;;7.28;;
63346;SDS011;49472;49.880;8.650;2023-08-20T13:36:44;7.32;;;6.93;;
63346;SDS011;49472;49.880;8.650;2023-08-20T13:39:12;7.13;;;6.72;;
63346;SDS011;49472;49.880;8.650;2023-08-20T13:41:46;9.02;;;7.20;;
63346;SDS011;49472;49.880;8.650;2023-08-20T13:44:14;7.72;;;7.18;;
63346;SDS011;49472;49.880;8.650;2023-08-20T13:46:39;6.50;;;6.20;;
63346;SDS011;49472;49.880;8.650;2023-08-20T13:49:04;7.32;;;6.78;;
63346;SDS011;49472;49.880;8.650;2023-08-20T13:51:30;6.07;;;5.70;;
63346;SDS011;49472;49.880;8.650;2023-08-20T13:53:55;6.68;;;6.30;;
63346;SDS011;49472;49.880;8.650;2023-08-20T13:56:21;6.15;;;5.82;;
63346;SDS011;49472;49.880;8.650;2023-08-20T13:58:47;7.00;;;6.53;;
63346;SDS011;49472;49.880;8.650;2023-08-20T14:01:12;7.18;;;6.60;;
63346;SDS011;49472;49.880;8.650;2023-08-20T14:03:38;6.63;;;6.13;;
63346;SDS011;49472;49.880;8.650;2023-08-20T14:06:04;6.28;;;6.13;;
63346;SDS011;49472;49.880;8.650;2023-08-20T14:08:30;6.85;;;6.55;;
63346;SDS011;49472;49.880;8.650;2023-08-20T14:10:56;6.40;;;6.10;;
63346;SDS011;49472;49.880;8.650;2023-08-20T14:13:21;6.30;;;6.10;;
63346;SDS011;49472;49.880;8.650;2023-08-20T14:15:46;6.53;;;6.20;;
63346;SDS011;49472;49.880;8.650;2023-08-20T14:18:12;6.40;;;6.10;;
63346;SDS011;49472;49.880;8.650;2023-08-20T14:20:37;6.78;;;6.28;;
63346;SDS011;49472;49.880;8.650;2023-08-20T14:23:03;7.72;;;7.25;;
63346;SDS011;49472;49.880;8.650;2023-08-20T14:25:28;6.95;;;6.53;;
63346;SDS011;49472;49.880;8.650;2023-08-20T14:27:54;6.88;;;6.25;;
63346;SDS011;49472;49.880;8.650;2023-08-20T14:30:19;6.68;;;6.40;;
63346;SDS011;49472;49.880;8.650;2023-08-20T14:32:44;6.38;;;5.82;;
63346;SDS011;49472;49.880;8.650;2023-08-20T14:35:10;6.53;;;6.13;;
63346;SDS011;49472;49.880;8.650;2023-08-20T14:37:35;6.38;;;6.13;;
63346;SDS011;49472;49.880;8.650;2023-08-20T14:40:01;6.35;;;6.15;;
63346;SDS011;49472;49.880;8.650;2023-08-20T14:42:26;6.22;;;5.90;;
63346;SDS011;49472;49.880;8.650;2023-08-20T14:44:52;6.38;;;6.03;;